Time,TemperatureF,DewpointF,PressureIn,WindDirection,WindDirectionDegrees,WindSpeedMPH,WindSpeedGustMPH,Humidity,HourlyPrecipIn,Conditions,Clouds,dailyrainin,SolarRadiationWatts/m^2,SoftwareType,DateUTC
2013-05-15 00:04:00,60.8,53.9,29.92,ENE,59,4.0,4.0,78,0.00,CLR,FEW,0.00,0.0,WeatherDisplay:10.37,2013-05-14 22:04:00,
2013-05-15 00:09:00,60.6,54.0,29.92,ENE,76,4.6,4.6,79,0.00,CLR,FEW,0.00,0.0,WeatherDisplay:10.37,2013-05-14 22:09:00,
2013-05-15 00:14:00,60.4,53.9,29.92,NE,49,5.8,5.8,79,0.00,CLR,FEW,0.00,0.0,WeatherDisplay:10.37,2013-05-14 22:14:00,
2013-05-15 00:19:00,60.3,54.1,29.92,NE,51,1.2,0.0,80,0.00,CLR,FEW,0.00,0.0,WeatherDisplay:10.37,2013-05-14 22:19:00,
2013-05-15 00:24:00,59.7,53.5,29.91,NE,51,2.3,2.3,80,0.00,CLR,FEW,0.00,0.0,WeatherDisplay:10.37,2013-05-14 22:24:00,
2013-05-15 00:29:00,59.7,53.9,29.91,ESE,109,8.1,8.1,81,0.00,CLR,FEW,0.00,0.0,WeatherDisplay:10.37,2013-05-14 22:29:00,
2013-05-15 00:34:00,60.1,54.6,29.91,ESE,109,5.0,5.0,82,0.00,CLR,FEW,0.00,0.0,WeatherDisplay:10.37,2013-05-14 22:34:00,
2013-05-15 00:39:00,60.4,54.9,29.91,NE,42,8.1,8.1,82,0.00,CLR,FEW,0.00,0.0,WeatherDisplay:10.37,2013-05-14 22:39:00,
2013-05-15 00:44:00,60.6,55.1,29.91,ENE,65,9.2,9.2,82,0.00,CLR,FEW,0.00,0.0,WeatherDisplay:10.37,2013-05-14 22:44:00,
2013-05-15 00:49:00,60.8,54.9,29.90,ESE,108,9.2,9.2,81,0.00,CLR,FEW,0.00,0.0,WeatherDisplay:10.37,2013-05-14 22:49:00,
2013-05-15 00:54:00,60.8,55.3,29.90,ESE,118,11.0,11.0,82,0.00,CLR,FEW,0.00,0.0,WeatherDisplay:10.37,2013-05-14 22:54:00,
2013-05-15 00:59:00,60.8,54.9,29.91,SE,135,11.5,11.5,81,0.00,CLR,FEW,0.00,0.0,WeatherDisplay:10.37,2013-05-14 22:59:00,
2013-05-15 01:04:00,60.8,55.3,29.90,SSW,205,11.5,11.5,82,0.00,CLR,FEW,0.00,0.0,WeatherDisplay:10.37,2013-05-14 23:04:00,
2013-05-15 01:09:00,60.7,55.2,29.90,ESE,120,5.8,5.8,82,0.00,CLR,FEW,0.00,0.0,WeatherDisplay:10.37,2013-05-14 23:09:00,
2013-05-15 01:14:00,60.6,55.4,29.90,East,80,4.6,4.6,83,0.00,CLR,FEW,0.00,0.0,WeatherDisplay:10.37,2013-05-14 23:14:00,
2013-05-15 01:19:00,60.3,55.1,29.90,East,80,2.3,2.3,83,0.00,CLR,FEW,0.00,0.0,WeatherDisplay:10.37,2013-05-14 23:19:00,
2013-05-15 01:24:00,60.2,55.3,29.90,WSW,248,3.5,3.5,84,0.00,CLR,FEW,0.00,0.0,WeatherDisplay:10.37,2013-05-14 23:24:00,
2013-05-15 01:29:00,59.9,55.1,29.90,NE,38,5.0,5.0,84,0.00,CLR,FEW,0.00,0.0,WeatherDisplay:10.37,2013-05-14 23:29:00,
2013-05-15 01:34:00,59.9,55.4,29.90,East,81,3.5,3.5,85,0.00,CLR,FEW,0.00,0.0,WeatherDisplay:10.37,2013-05-14 23:34:00,
2013-05-15 01:39:00,59.6,55.1,29.90,East,81,0.0,0.0,85,0.00,CLR,FEW,0.00,0.0,WeatherDisplay:10.37,2013-05-14 23:39:00,
2013-05-15 01:45:00,59.3,55.1,29.90,East,81,1.2,0.0,86,0.00,CLR,FEW,0.00,0.0,WeatherDisplay:10.37,2013-05-14 23:45:00,
2013-05-15 01:50:00,59.1,54.9,29.90,SSE,166,3.5,3.5,86,0.00,CLR,FEW,0.00,0.0,WeatherDisplay:10.37,2013-05-14 23:50:00,
2013-05-15 01:55:00,59.1,55.9,29.90,SSE,166,1.2,0.0,89,0.00,CLR,FEW,0.00,0.0,WeatherDisplay:10.37,2013-05-14 23:55:00,
2013-05-15 02:00:00,59.2,55.3,29.90,SSE,166,2.3,2.3,87,0.00,CLR,FEW,0.00,0.0,WeatherDisplay:10.37,2013-05-15 00:00:00,
2013-05-15 02:05:00,59.1,55.2,29.90,SSE,166,2.0,2.0,87,0.00,CLR,FEW,0.00,0.0,WeatherDisplay:10.37,2013-05-15 00:05:00,
2013-05-15 02:10:00,59.1,55.5,29.90,SSE,166,1.2,0.0,88,0.00,CLR,FEW,0.00,0.0,WeatherDisplay:10.37,2013-05-15 00:10:00,
2013-05-15 02:15:00,59.2,55.6,29.90,ESE,109,5.0,5.0,88,0.00,CLR,FEW,0.00,0.0,WeatherDisplay:10.37,2013-05-15 00:15:00,
2013-05-15 02:20:00,59.4,55.8,29.89,East,85,5.8,5.8,88,0.00,CLR,FEW,0.00,0.0,WeatherDisplay:10.37,2013-05-15 00:20:00,
2013-05-15 02:25:00,59.4,55.8,29.89,East,80,5.8,5.8,88,0.00,CLR,FEW,0.00,0.0,WeatherDisplay:10.37,2013-05-15 00:25:00,
2013-05-15 02:30:00,59.4,55.8,29.89,ESE,104,5.8,5.8,88,0.00,CLR,FEW,0.00,0.0,WeatherDisplay:10.37,2013-05-15 00:30:00,
2013-05-15 02:35:00,59.4,55.8,29.89,ESE,104,5.8,5.8,88,0.00,CLR,FEW,0.00,0.0,WeatherDisplay:10.37,2013-05-15 00:35:00,
2013-05-15 02:40:00,59.4,55.8,29.89,ENE,63,3.5,3.5,88,0.00,CLR,FEW,0.00,0.0,WeatherDisplay:10.37,2013-05-15 00:40:00,
2013-05-15 02:45:00,59.3,55.7,29.89,ENE,63,2.3,2.3,88,0.00,CLR,FEW,0.00,0.0,WeatherDisplay:10.37,2013-05-15 00:45:00,
2013-05-15 02:50:00,59.4,55.8,29.89,East,98,6.9,6.9,88,0.00,CLR,FEW,0.00,0.0,WeatherDisplay:10.37,2013-05-15 00:50:00,
2013-05-15 02:55:00,59.5,55.9,29.89,ESE,104,4.6,4.6,88,0.00,CLR,FEW,0.00,0.0,WeatherDisplay:10.37,2013-05-15 00:55:00,
2013-05-15 03:00:00,59.4,55.8,29.88,ESE,105,4.6,4.6,88,0.00,CLR,FEW,0.00,0.0,WeatherDisplay:10.37,2013-05-15 01:00:00,
2013-05-15 03:05:00,59.4,55.8,29.88,East,92,5.8,5.8,88,0.00,CLR,FEW,0.00,0.0,WeatherDisplay:10.37,2013-05-15 01:05:00,
2013-05-15 03:10:00,59.4,55.8,29.88,East,80,6.0,6.0,88,0.00,CLR,FEW,0.00,0.0,WeatherDisplay:10.37,2013-05-15 01:10:00,
2013-05-15 03:15:00,59.3,55.7,29.88,ESE,109,7.0,7.0,88,0.00,CLR,FEW,0.00,0.0,WeatherDisplay:10.37,2013-05-15 01:15:00,
2013-05-15 03:20:00,59.3,55.7,29.87,ESE,107,8.1,8.1,88,0.00,CLR,FEW,0.00,0.0,WeatherDisplay:10.37,2013-05-15 01:20:00,
2013-05-15 03:26:00,59.2,55.3,29.87,East,97,8.1,8.1,87,0.00,CLR,FEW,0.00,0.0,WeatherDisplay:10.37,2013-05-15 01:26:00,
2013-05-15 03:31:00,59.2,55.3,29.86,SSE,150,11.5,11.5,87,0.00,CLR,FEW,0.00,0.0,WeatherDisplay:10.37,2013-05-15 01:31:00,
2013-05-15 03:36:00,59.1,55.2,29.86,SE,146,9.2,9.2,87,0.00,CLR,FEW,0.00,0.0,WeatherDisplay:10.37,2013-05-15 01:36:00,
2013-05-15 03:41:00,59.2,55.3,29.86,East,88,9.0,9.0,87,0.00,CLR,FEW,0.00,0.0,WeatherDisplay:10.37,2013-05-15 01:41:00,
2013-05-15 03:47:00,59.4,55.5,29.87,ESE,119,6.9,6.9,87,0.00,CLR,FEW,0.00,0.0,WeatherDisplay:10.37,2013-05-15 01:47:00,
2013-05-15 03:52:00,59.4,55.6,29.87,ESE,121,3.5,3.5,87,0.00,CLR,FEW,0.00,0.0,WeatherDisplay:10.37,2013-05-15 01:52:00,
2013-05-15 03:57:00,59.1,55.9,29.86,ESE,121,4.6,4.6,89,0.00,CLR,FEW,0.00,0.0,WeatherDisplay:10.37,2013-05-15 01:57:00,
2013-05-15 04:02:00,59.0,55.1,29.86,ESE,108,3.5,3.5,87,0.00,CLR,FEW,0.00,0.0,WeatherDisplay:10.37,2013-05-15 02:02:00,
2013-05-15 04:07:00,58.8,54.9,29.86,SE,146,5.8,5.8,87,0.00,CLR,FEW,0.00,0.0,WeatherDisplay:10.37,2013-05-15 02:07:00,
2013-05-15 04:12:00,58.9,55.0,29.86,SE,141,7.0,7.0,87,0.00,CLR,FEW,0.00,0.0,WeatherDisplay:10.37,2013-05-15 02:12:00,
2013-05-15 04:17:00,58.9,55.0,29.86,SSE,159,6.9,6.9,87,0.00,CLR,FEW,0.00,0.0,WeatherDisplay:10.37,2013-05-15 02:17:00,
2013-05-15 04:22:00,58.9,55.0,29.86,SE,136,5.0,9.0,87,0.00,CLR,FEW,0.00,0.0,WeatherDisplay:10.37,2013-05-15 02:22:00,
2013-05-15 04:27:00,59.0,55.1,29.86,ESE,109,11.5,11.5,87,0.00,CLR,FEW,0.00,0.0,WeatherDisplay:10.37,2013-05-15 02:27:00,
2013-05-15 04:32:00,59.0,55.1,29.86,SE,125,9.2,9.2,87,0.00,CLR,FEW,0.00,0.0,WeatherDisplay:10.37,2013-05-15 02:32:00,
2013-05-15 04:37:00,59.1,55.2,29.85,SE,131,6.9,6.9,87,0.00,CLR,FEW,0.00,0.0,WeatherDisplay:10.37,2013-05-15 02:37:00,
2013-05-15 04:42:00,59.1,55.2,29.85,SE,135,5.0,9.0,87,0.00,CLR,FEW,0.00,0.0,WeatherDisplay:10.37,2013-05-15 02:42:00,
2013-05-15 04:47:00,59.0,54.8,29.85,SE,126,6.9,6.9,86,0.00,CLR,FEW,0.00,0.0,WeatherDisplay:10.37,2013-05-15 02:47:00,
2013-05-15 04:52:00,58.9,54.7,29.85,SE,128,5.0,12.0,86,0.00,CLR,FEW,0.00,0.0,WeatherDisplay:10.37,2013-05-15 02:52:00,
2013-05-15 04:57:00,58.9,54.7,29.85,ESE,111,9.2,9.2,86,0.00,CLR,FEW,0.00,0.0,WeatherDisplay:10.37,2013-05-15 02:57:00,
2013-05-15 05:02:00,59.0,54.8,29.85,ESE,109,11.5,11.5,86,0.00,CLR,FEW,0.00,0.0,WeatherDisplay:10.37,2013-05-15 03:02:00,
2013-05-15 05:07:00,58.9,54.7,29.85,ESE,107,8.1,8.1,86,0.00,CLR,FEW,0.00,0.0,WeatherDisplay:10.37,2013-05-15 03:07:00,
2013-05-15 05:12:00,58.9,54.7,29.85,SE,136,6.9,6.9,86,0.00,CLR,FEW,0.00,0.0,WeatherDisplay:10.37,2013-05-15 03:12:00,
2013-05-15 05:17:00,58.8,54.6,29.85,ESE,122,6.9,6.9,86,0.00,OVC,FEW,0.00,0.0,WeatherDisplay:10.37,2013-05-15 03:17:00,
2013-05-15 05:22:00,58.7,54.5,29.85,SE,129,6.9,6.9,86,0.00,OVC,FEW,0.00,0.0,WeatherDisplay:10.37,2013-05-15 03:22:00,
2013-05-15 05:27:00,58.7,54.5,29.84,ESE,123,6.9,6.9,86,0.00,OVC,FEW,0.00,0.0,WeatherDisplay:10.37,2013-05-15 03:27:00,
2013-05-15 05:32:00,58.6,54.4,29.84,East,100,8.1,8.1,86,0.00,OVC,FEW,0.00,0.0,WeatherDisplay:10.37,2013-05-15 03:32:00,
2013-05-15 05:37:00,58.6,54.4,29.84,ESE,111,11.5,11.5,86,0.00,OVC,FEW,0.00,0.0,WeatherDisplay:10.37,2013-05-15 03:37:00,
2013-05-15 05:43:00,58.7,54.5,29.84,SSE,148,11.5,11.5,86,0.00,OVC,FEW,0.00,0.0,WeatherDisplay:10.37,2013-05-15 03:43:00,
2013-05-15 05:49:00,58.6,54.1,29.84,SSE,154,6.0,6.0,85,0.00,OVC,FEW,0.00,0.0,WeatherDisplay:10.37,2013-05-15 03:49:00,
2013-05-15 05:54:00,58.6,54.1,29.85,SE,135,5.8,5.8,85,0.00,OVC,FEW,0.00,0.0,WeatherDisplay:10.37,2013-05-15 03:54:00,
2013-05-15 06:00:00,58.4,53.9,29.85,SSW,202,1.2,1.2,85,0.00,OVC,FEW,0.00,0.0,WeatherDisplay:10.37,2013-05-15 04:00:00,
2013-05-15 06:01:00,58.4,53.9,29.85,SE,130,6.0,6.0,85,0.00,OVC,FEW,0.00,0.0,WeatherDisplay:10.37,2013-05-15 04:01:00,
2013-05-15 06:06:00,58.3,53.8,29.85,SSE,148,2.3,2.3,85,0.00,OVC,FEW,0.00,0.0,WeatherDisplay:10.37,2013-05-15 04:06:00,
2013-05-15 06:11:00,58.3,54.1,29.85,ENE,68,1.2,1.2,86,0.00,OVC,FEW,0.00,0.0,WeatherDisplay:10.37,2013-05-15 04:11:00,
2013-05-15 06:16:00,58.2,53.7,29.85,ENE,68,2.3,2.3,85,0.00,OVC,FEW,0.00,0.0,WeatherDisplay:10.37,2013-05-15 04:16:00,
2013-05-15 06:21:00,58.2,53.7,29.85,East,93,4.6,4.6,85,0.00,OVC,FEW,0.00,0.0,WeatherDisplay:10.37,2013-05-15 04:21:00,
2013-05-15 06:26:00,58.3,53.8,29.85,SE,136,7.0,7.0,85,0.00,OVC,FEW,0.00,0.0,WeatherDisplay:10.37,2013-05-15 04:26:00,
2013-05-15 06:31:00,58.5,54.0,29.86,ESE,123,6.9,6.9,85,0.00,OVC,FEW,0.00,0.0,WeatherDisplay:10.37,2013-05-15 04:31:00,
2013-05-15 06:37:00,58.7,53.9,29.86,SE,145,5.8,5.8,84,0.00,OVC,FEW,0.00,0.0,WeatherDisplay:10.37,2013-05-15 04:37:00,
2013-05-15 06:43:00,58.8,54.3,29.86,South,173,8.1,8.1,85,0.00,OVC,FEW,0.00,0.0,WeatherDisplay:10.37,2013-05-15 04:43:00,
2013-05-15 06:48:00,58.9,54.4,29.86,South,181,9.2,9.2,85,0.00,OVC,FEW,0.00,0.0,WeatherDisplay:10.37,2013-05-15 04:48:00,
2013-05-15 06:53:00,59.0,54.5,29.86,South,189,6.9,6.9,85,0.00,OVC,FEW,0.00,0.0,WeatherDisplay:10.37,2013-05-15 04:53:00,
2013-05-15 06:58:00,59.2,54.7,29.86,South,172,6.9,6.9,85,0.00,OVC,FEW,0.00,0.0,WeatherDisplay:10.37,2013-05-15 04:58:00,
2013-05-15 07:03:00,59.6,55.1,29.86,SSE,157,6.9,6.9,85,0.00,OVC,FEW,0.00,0.0,WeatherDisplay:10.37,2013-05-15 05:03:00,
2013-05-15 07:08:00,60.0,55.2,29.86,South,174,8.1,8.1,84,0.00,OVC,FEW,0.00,0.0,WeatherDisplay:10.37,2013-05-15 05:08:00,
2013-05-15 07:13:00,60.2,55.0,29.86,ESE,112,9.2,9.2,83,0.00,OVC,FEW,0.00,0.0,WeatherDisplay:10.37,2013-05-15 05:13:00,
2013-05-15 07:18:00,60.4,55.2,29.86,SSE,155,12.7,12.7,83,0.00,OVC,FEW,0.00,0.0,WeatherDisplay:10.37,2013-05-15 05:18:00,
2013-05-15 07:23:00,60.6,54.7,29.85,ESE,122,11.5,11.5,81,0.00,OVC,FEW,0.00,0.0,WeatherDisplay:10.37,2013-05-15 05:23:00,
2013-05-15 07:28:00,61.2,55.3,29.85,East,96,8.1,8.1,81,0.00,OVC,FEW,0.00,0.0,WeatherDisplay:10.37,2013-05-15 05:28:00,
2013-05-15 07:33:00,61.5,55.3,29.85,ESE,115,8.1,8.1,80,0.00,OVC,FEW,0.00,0.0,WeatherDisplay:10.37,2013-05-15 05:33:00,
2013-05-15 07:38:00,61.5,54.9,29.85,ESE,120,9.2,9.2,79,0.00,OVC,FEW,0.00,0.0,WeatherDisplay:10.37,2013-05-15 05:38:00,
2013-05-15 07:43:00,61.5,54.6,29.85,ENE,76,4.6,4.6,78,0.00,OVC,FEW,0.00,0.0,WeatherDisplay:10.37,2013-05-15 05:43:00,
2013-05-15 07:48:00,61.6,54.7,29.85,East,98,11.5,11.5,78,0.00,OVC,FEW,0.00,0.0,WeatherDisplay:10.37,2013-05-15 05:48:00,
2013-05-15 07:53:00,61.7,54.4,29.85,ESE,105,5.8,5.8,77,0.00,OVC,FEW,0.00,0.0,WeatherDisplay:10.37,2013-05-15 05:53:00,
2013-05-15 07:58:00,62.0,54.7,29.85,ENE,57,5.8,5.8,77,0.00,OVC,FEW,0.00,0.0,WeatherDisplay:10.37,2013-05-15 05:58:00,
2013-05-15 08:03:00,62.3,54.6,29.86,ENE,74,2.3,2.3,76,0.00,OVC,FEW,0.00,0.0,WeatherDisplay:10.37,2013-05-15 06:03:00,
2013-05-15 08:08:00,62.5,54.5,29.86,NE,43,3.5,3.5,75,0.00,OVC,FEW,0.00,0.0,WeatherDisplay:10.37,2013-05-15 06:08:00,
2013-05-15 08:13:00,62.5,54.1,29.86,NE,43,5.8,5.8,74,0.00,OVC,FEW,0.00,0.0,WeatherDisplay:10.37,2013-05-15 06:13:00,
2013-05-15 08:18:00,63.0,54.2,29.86,East,88,4.6,4.6,73,0.00,OVC,FEW,0.00,0.0,WeatherDisplay:10.37,2013-05-15 06:18:00,
2013-05-15 08:23:00,63.7,54.9,29.86,NE,51,3.5,3.5,73,0.00,OVC,FEW,0.00,0.0,WeatherDisplay:10.37,2013-05-15 06:23:00,
2013-05-15 08:28:00,64.2,54.6,29.86,NNE,26,3.5,3.5,71,0.00,OVC,FEW,0.00,0.0,WeatherDisplay:10.37,2013-05-15 06:28:00,
2013-05-15 08:33:00,64.2,54.6,29.86,NNE,19,4.6,4.6,71,0.00,OVC,FEW,0.00,0.0,WeatherDisplay:10.37,2013-05-15 06:33:00,
2013-05-15 08:38:00,64.2,54.2,29.86,NE,42,3.5,3.5,70,0.00,OVC,FEW,0.00,0.0,WeatherDisplay:10.37,2013-05-15 06:38:00,
2013-05-15 08:43:00,64.3,54.3,29.86,NE,36,5.8,5.8,70,0.00,OVC,FEW,0.00,0.0,WeatherDisplay:10.37,2013-05-15 06:43:00,
2013-05-15 08:48:00,64.6,54.2,29.85,NE,44,5.8,5.8,69,0.00,OVC,FEW,0.00,0.0,WeatherDisplay:10.37,2013-05-15 06:48:00,
2013-05-15 08:53:00,64.4,54.0,29.86,NE,53,6.9,6.9,69,0.00,OVC,FEW,0.00,0.0,WeatherDisplay:10.37,2013-05-15 06:53:00,
2013-05-15 08:58:00,65.2,54.8,29.86,ENE,67,5.0,5.0,69,0.00,OVC,FEW,0.00,0.0,WeatherDisplay:10.37,2013-05-15 06:58:00,
2013-05-15 09:03:00,65.1,53.9,29.85,NE,54,8.1,8.1,67,0.00,OVC,FEW,0.00,0.0,WeatherDisplay:10.37,2013-05-15 07:03:00,
2013-05-15 09:08:00,65.2,53.6,29.85,NE,52,7.0,7.0,66,0.00,OVC,FEW,0.00,0.0,WeatherDisplay:10.37,2013-05-15 07:08:00,
2013-05-15 09:13:00,65.7,53.6,29.85,East,98,5.0,5.0,65,0.00,OVC,FEW,0.00,0.0,WeatherDisplay:10.37,2013-05-15 07:13:00,
2013-05-15 09:18:00,65.9,53.4,29.85,ENE,67,6.0,6.0,64,0.00,OVC,FEW,0.00,0.0,WeatherDisplay:10.37,2013-05-15 07:18:00,
2013-05-15 09:23:00,66.1,52.7,29.85,NNE,20,5.8,5.8,62,0.00,OVC,FEW,0.00,0.0,WeatherDisplay:10.37,2013-05-15 07:23:00,
2013-05-15 09:28:00,66.0,49.8,29.85,NE,50,10.4,10.4,56,0.00,OVC,FEW,0.00,0.0,WeatherDisplay:10.37,2013-05-15 07:28:00,
2013-05-15 09:33:00,66.2,51.0,29.85,ENE,57,5.0,5.0,58,0.00,OVC,FEW,0.00,0.0,WeatherDisplay:10.37,2013-05-15 07:33:00,
2013-05-15 09:38:00,66.8,51.1,29.85,NNE,30,3.5,3.5,57,0.00,OVC,FEW,0.00,0.0,WeatherDisplay:10.37,2013-05-15 07:38:00,
2013-05-15 09:43:00,66.9,50.7,29.84,NNE,30,7.0,7.0,56,0.00,OVC,FEW,0.00,0.0,WeatherDisplay:10.37,2013-05-15 07:43:00,
2013-05-15 09:48:00,66.7,50.5,29.84,ESE,102,8.1,8.1,56,0.00,OVC,FEW,0.00,0.0,WeatherDisplay:10.37,2013-05-15 07:48:00,
2013-05-15 09:53:00,67.2,51.0,29.85,NE,55,9.2,9.2,56,0.00,OVC,FEW,0.00,0.0,WeatherDisplay:10.37,2013-05-15 07:53:00,
2013-05-15 09:58:00,67.8,50.5,29.85,SSE,162,8.1,8.1,54,0.00,OVC,FEW,0.00,0.0,WeatherDisplay:10.37,2013-05-15 07:58:00,
2013-05-15 10:03:00,67.5,51.2,29.84,NE,44,8.1,8.1,56,0.00,OVC,FEW,0.00,0.0,WeatherDisplay:10.37,2013-05-15 08:03:00,
2013-05-15 10:08:00,67.7,49.9,29.84,NE,55,3.5,3.5,53,0.00,OVC,FEW,0.00,0.0,WeatherDisplay:10.37,2013-05-15 08:08:00,
2013-05-15 10:13:00,68.8,51.5,29.84,ENE,57,8.1,8.1,54,0.00,OVC,FEW,0.00,0.0,WeatherDisplay:10.37,2013-05-15 08:13:00,
2013-05-15 10:18:00,69.0,50.6,29.84,ENE,63,10.4,10.4,52,0.00,OVC,FEW,0.00,0.0,WeatherDisplay:10.37,2013-05-15 08:18:00,
2013-05-15 10:23:00,67.7,49.4,29.84,SE,126,9.2,9.2,52,0.00,OVC,FEW,0.00,0.0,WeatherDisplay:10.37,2013-05-15 08:23:00,
2013-05-15 10:28:00,67.0,50.3,29.83,SE,136,6.9,6.9,55,0.00,OVC,FEW,0.00,0.0,WeatherDisplay:10.37,2013-05-15 08:28:00,
2013-05-15 10:33:00,67.1,50.9,29.83,ESE,108,9.2,9.2,56,0.00,OVC,FEW,0.00,0.0,WeatherDisplay:10.37,2013-05-15 08:33:00,
2013-05-15 10:38:00,67.2,52.8,29.83,ESE,107,3.5,3.5,60,0.00,OVC,FEW,0.00,0.0,WeatherDisplay:10.37,2013-05-15 08:38:00,
2013-05-15 10:43:00,66.7,53.3,29.83,NNE,19,11.5,11.5,62,0.00,OVC,FEW,0.00,0.0,WeatherDisplay:10.37,2013-05-15 08:43:00,
2013-05-15 10:48:00,66.1,54.8,29.83,SSE,160,9.2,9.2,67,0.00,OVC,FEW,0.00,0.0,WeatherDisplay:10.37,2013-05-15 08:48:00,
2013-05-15 10:53:00,66.0,54.7,29.83,NE,48,5.8,5.8,67,0.00,OVC,FEW,0.00,0.0,WeatherDisplay:10.37,2013-05-15 08:53:00,
2013-05-15 10:58:00,65.0,54.6,29.83,North,355,4.6,4.6,69,0.00,OVC,FEW,0.00,0.0,WeatherDisplay:10.37,2013-05-15 08:58:00,
2013-05-15 11:04:00,65.1,54.3,29.83,NNE,33,6.9,6.9,68,0.00,OVC,FEW,0.00,0.0,WeatherDisplay:10.37,2013-05-15 09:04:00,
2013-05-15 11:11:00,65.3,53.2,29.83,NE,38,8.1,8.1,65,0.00,OVC,FEW,0.00,0.0,WeatherDisplay:10.37,2013-05-15 09:11:00,
2013-05-15 11:16:00,66.3,54.2,29.83,ENE,61,5.8,5.8,65,0.00,OVC,FEW,0.00,0.0,WeatherDisplay:10.37,2013-05-15 09:16:00,
2013-05-15 11:21:00,66.6,52.7,29.83,SE,130,5.8,5.8,61,0.00,OVC,FEW,0.00,0.0,WeatherDisplay:10.37,2013-05-15 09:21:00,
2013-05-15 11:26:00,66.8,51.5,29.84,SE,136,9.2,9.2,58,0.00,OVC,FEW,0.00,0.0,WeatherDisplay:10.37,2013-05-15 09:26:00,
2013-05-15 11:31:00,67.4,52.6,29.84,ENE,75,4.6,4.6,59,0.00,OVC,FEW,0.00,0.0,WeatherDisplay:10.37,2013-05-15 09:31:00,
2013-05-15 11:36:00,67.5,52.2,29.84,East,92,8.0,8.0,58,0.00,OVC,FEW,0.00,0.0,WeatherDisplay:10.37,2013-05-15 09:36:00,
2013-05-15 11:41:00,67.3,51.1,29.84,NNE,22,7.0,7.0,56,0.00,OVC,FEW,0.00,0.0,WeatherDisplay:10.37,2013-05-15 09:41:00,
2013-05-15 11:46:00,66.7,46.9,29.84,East,92,8.1,8.1,49,0.00,OVC,FEW,0.00,0.0,WeatherDisplay:10.37,2013-05-15 09:46:00,
2013-05-15 11:51:00,66.7,48.5,29.84,East,82,5.0,5.0,52,0.00,OVC,FEW,0.00,0.0,WeatherDisplay:10.37,2013-05-15 09:51:00,
2013-05-15 11:56:00,67.1,47.3,29.83,East,89,6.9,6.9,49,0.00,OVC,FEW,0.00,0.0,WeatherDisplay:10.37,2013-05-15 09:56:00,
2013-05-15 12:01:00,67.8,47.4,29.84,ENE,64,8.1,8.1,48,0.00,OVC,FEW,0.00,0.0,WeatherDisplay:10.37,2013-05-15 10:01:00,
2013-05-15 12:06:00,67.7,47.3,29.83,NNE,29,5.8,5.8,48,0.00,OVC,FEW,0.00,0.0,WeatherDisplay:10.37,2013-05-15 10:06:00,
2013-05-15 12:11:00,67.8,45.7,29.84,East,81,6.9,6.9,45,0.00,OVC,FEW,0.00,0.0,WeatherDisplay:10.37,2013-05-15 10:11:00,
2013-05-15 12:16:00,67.4,44.7,29.84,East,82,8.1,8.1,44,0.00,OVC,FEW,0.00,0.0,WeatherDisplay:10.37,2013-05-15 10:16:00,
2013-05-15 12:21:00,67.3,44.6,29.84,East,85,8.1,8.1,44,0.00,OVC,FEW,0.00,0.0,WeatherDisplay:10.37,2013-05-15 10:21:00,
2013-05-15 12:26:00,66.2,47.5,29.84,ENE,60,11.5,11.5,51,0.00,OVC,FEW,0.00,0.0,WeatherDisplay:10.37,2013-05-15 10:26:00,
2013-05-15 12:31:00,66.0,48.4,29.84,SE,125,14.0,14.0,53,0.00,OVC,FEW,0.00,0.0,WeatherDisplay:10.37,2013-05-15 10:31:00,
2013-05-15 12:36:00,65.7,51.0,29.84,ESE,109,11.5,11.5,59,0.00,OVC,FEW,0.00,0.0,WeatherDisplay:10.37,2013-05-15 10:36:00,
2013-05-15 12:42:00,65.7,51.9,29.84,ESE,107,5.0,14.0,61,0.00,OVC,FEW,0.00,0.0,WeatherDisplay:10.37,2013-05-15 10:42:00,
2013-05-15 12:47:00,66.1,51.8,29.84,ESE,103,6.0,6.0,60,0.00,OVC,FEW,0.00,0.0,WeatherDisplay:10.37,2013-05-15 10:47:00,
2013-05-15 12:52:00,65.8,50.7,29.83,SE,133,8.1,8.1,58,0.00,OVC,FEW,0.00,0.0,WeatherDisplay:10.37,2013-05-15 10:52:00,
2013-05-15 12:57:00,65.1,49.0,29.83,SSE,162,15.0,15.0,56,0.00,OVC,FEW,0.00,0.0,WeatherDisplay:10.37,2013-05-15 10:57:00,
2013-05-15 13:02:00,65.2,49.6,29.83,ESE,117,12.7,12.7,57,0.00,OVC,FEW,0.00,0.0,WeatherDisplay:10.37,2013-05-15 11:02:00,
2013-05-15 13:07:00,66.0,48.9,29.83,SSE,157,9.2,9.2,54,0.00,OVC,FEW,0.00,0.0,WeatherDisplay:10.37,2013-05-15 11:07:00,
2013-05-15 13:12:00,65.9,48.8,29.82,East,92,12.7,12.7,54,0.00,OVC,FEW,0.00,0.0,WeatherDisplay:10.37,2013-05-15 11:12:00,
2013-05-15 13:17:00,65.9,48.8,29.82,ESE,109,11.5,11.5,54,0.00,OVC,FEW,0.00,0.0,WeatherDisplay:10.37,2013-05-15 11:17:00,
2013-05-15 13:22:00,65.5,48.4,29.82,ESE,119,11.5,11.5,54,0.00,OVC,FEW,0.00,0.0,WeatherDisplay:10.37,2013-05-15 11:22:00,
2013-05-15 13:27:00,65.4,47.3,29.82,SE,134,13.8,13.8,52,0.00,OVC,FEW,0.00,0.0,WeatherDisplay:10.37,2013-05-15 11:27:00,
2013-05-15 13:33:00,65.5,46.4,29.82,East,98,13.8,13.8,50,0.00,OVC,FEW,0.00,0.0,WeatherDisplay:10.37,2013-05-15 11:33:00,
2013-05-15 13:38:00,65.4,47.3,29.82,ESE,119,11.5,11.5,52,0.00,OVC,FEW,0.00,0.0,WeatherDisplay:10.37,2013-05-15 11:38:00,
2013-05-15 13:43:00,65.3,47.2,29.81,ESE,111,11.5,11.5,52,0.00,OVC,FEW,0.00,0.0,WeatherDisplay:10.37,2013-05-15 11:43:00,
2013-05-15 13:49:00,65.3,45.6,29.81,SE,134,16.0,16.0,49,0.00,OVC,FEW,0.00,0.0,WeatherDisplay:10.37,2013-05-15 11:49:00,
2013-05-15 13:54:00,65.4,45.7,29.81,East,80,13.8,13.8,49,0.00,OVC,FEW,0.00,0.0,WeatherDisplay:10.37,2013-05-15 11:54:00,
2013-05-15 13:59:00,65.5,44.7,29.82,ESE,117,9.2,9.2,47,0.00,OVC,FEW,0.00,0.0,WeatherDisplay:10.37,2013-05-15 11:59:00,
2013-05-15 14:04:00,65.6,43.1,29.81,SE,135,11.5,11.5,44,0.00,OVC,FEW,0.00,0.0,WeatherDisplay:10.37,2013-05-15 12:04:00,
2013-05-15 14:10:00,65.8,42.1,29.81,SE,141,15.0,15.0,42,0.00,OVC,FEW,0.00,0.0,WeatherDisplay:10.37,2013-05-15 12:10:00,
2013-05-15 14:14:00,65.7,41.3,29.82,SE,134,9.2,9.2,41,0.00,OVC,FEW,0.00,0.0,WeatherDisplay:10.37,2013-05-15 12:14:00,
2013-05-15 14:20:00,65.7,42.0,29.82,SSE,167,13.8,13.8,42,0.00,OVC,FEW,0.00,0.0,WeatherDisplay:10.37,2013-05-15 12:20:00,
2013-05-15 14:26:00,65.5,43.0,29.82,SSE,157,10.4,10.4,44,0.00,OVC,FEW,0.00,0.0,WeatherDisplay:10.37,2013-05-15 12:26:00,
2013-05-15 14:31:00,65.2,46.1,29.82,SE,144,10.4,10.4,50,0.00,OVC,FEW,0.00,0.0,WeatherDisplay:10.37,2013-05-15 12:31:00,
2013-05-15 14:36:00,64.8,51.0,29.82,SE,126,9.2,9.2,61,0.00,OVC,FEW,0.00,0.0,WeatherDisplay:10.37,2013-05-15 12:36:00,
2013-05-15 14:41:00,64.5,52.5,29.82,SW,228,13.8,13.8,65,0.00,OVC,FEW,0.00,0.0,WeatherDisplay:10.37,2013-05-15 12:41:00,
2013-05-15 14:46:00,64.3,51.8,29.82,SSE,163,11.5,11.5,64,0.00,OVC,FEW,0.00,0.0,WeatherDisplay:10.37,2013-05-15 12:46:00,
2013-05-15 14:51:00,64.4,52.4,29.82,SSE,160,6.0,13.0,65,0.00,OVC,FEW,0.00,0.0,WeatherDisplay:10.37,2013-05-15 12:51:00,
2013-05-15 14:57:00,65.1,54.3,29.82,South,184,10.0,10.0,68,0.00,OVC,FEW,0.00,0.0,WeatherDisplay:10.37,2013-05-15 12:57:00,
2013-05-15 15:02:00,65.2,55.9,29.82,South,184,9.2,9.2,72,0.00,OVC,FEW,0.00,0.0,WeatherDisplay:10.37,2013-05-15 13:02:00,
2013-05-15 15:08:00,64.9,56.8,29.82,SE,142,9.2,9.2,75,0.00,OVC,FEW,0.00,0.0,WeatherDisplay:10.37,2013-05-15 13:08:00,
2013-05-15 15:13:00,64.5,57.1,29.82,SE,140,10.4,10.4,77,0.00,OVC,FEW,0.00,0.0,WeatherDisplay:10.37,2013-05-15 13:13:00,
2013-05-15 15:18:00,64.8,57.8,29.82,SE,143,8.1,8.1,78,0.00,OVC,FEW,0.00,0.0,WeatherDisplay:10.37,2013-05-15 13:18:00,
2013-05-15 15:24:00,64.5,57.1,29.82,SSW,199,5.8,5.8,77,0.00,OVC,FEW,0.00,0.0,WeatherDisplay:10.37,2013-05-15 13:24:00,
2013-05-15 15:29:00,64.5,56.8,29.82,SW,229,8.1,8.1,76,0.00,OVC,FEW,0.00,0.0,WeatherDisplay:10.37,2013-05-15 13:29:00,
2013-05-15 15:34:00,64.4,56.7,29.81,SW,217,8.1,8.1,76,0.00,OVC,FEW,0.00,0.0,WeatherDisplay:10.37,2013-05-15 13:34:00,
2013-05-15 15:39:00,64.3,56.9,29.81,ESE,112,5.8,5.8,77,0.00,OVC,FEW,0.00,0.0,WeatherDisplay:10.37,2013-05-15 13:39:00,
2013-05-15 15:45:00,64.0,56.6,29.81,South,183,5.8,5.8,77,0.00,OVC,FEW,0.00,0.0,WeatherDisplay:10.37,2013-05-15 13:45:00,
2013-05-15 15:50:00,64.0,57.0,29.81,SSE,168,6.9,6.9,78,0.00,OVC,FEW,0.00,0.0,WeatherDisplay:10.37,2013-05-15 13:50:00,
2013-05-15 15:55:00,63.9,57.3,29.81,South,172,3.5,3.5,79,0.00,OVC,FEW,0.00,0.0,WeatherDisplay:10.37,2013-05-15 13:55:00,
2013-05-15 16:00:00,63.8,57.5,29.81,ENE,76,2.3,2.3,80,0.00,OVC,FEW,0.00,0.0,WeatherDisplay:10.37,2013-05-15 14:00:00,
2013-05-15 16:05:00,63.9,57.6,29.81,SSE,155,5.8,5.8,80,0.00,OVC,FEW,0.00,0.0,WeatherDisplay:10.37,2013-05-15 14:05:00,
2013-05-15 16:10:00,64.1,57.5,29.81,SSE,163,10.4,10.4,79,0.00,OVC,FEW,0.00,0.0,WeatherDisplay:10.37,2013-05-15 14:10:00,
2013-05-15 16:15:00,64.3,57.6,29.80,South,186,4.6,4.6,79,0.00,OVC,FEW,0.00,0.0,WeatherDisplay:10.37,2013-05-15 14:15:00,
2013-05-15 16:20:00,64.3,58.0,29.80,ESE,106,4.0,4.0,80,0.00,OVC,FEW,0.00,0.0,WeatherDisplay:10.37,2013-05-15 14:20:00,
2013-05-15 16:26:00,64.3,57.6,29.80,ESE,108,8.1,8.1,79,0.00,OVC,FEW,0.00,0.0,WeatherDisplay:10.37,2013-05-15 14:26:00,
2013-05-15 16:31:00,64.9,58.6,29.80,SW,219,3.5,3.5,80,0.00,OVC,FEW,0.00,0.0,WeatherDisplay:10.37,2013-05-15 14:31:00,
2013-05-15 16:36:00,64.4,57.7,29.80,South,190,6.9,6.9,79,0.00,OVC,FEW,0.00,0.0,WeatherDisplay:10.37,2013-05-15 14:36:00,
2013-05-15 16:41:00,64.3,58.0,29.79,ESE,117,6.0,6.0,80,0.00,OVC,FEW,0.00,0.0,WeatherDisplay:10.37,2013-05-15 14:41:00,
2013-05-15 16:46:00,64.2,58.2,29.79,ESE,103,4.6,4.6,81,0.00,OVC,FEW,0.00,0.0,WeatherDisplay:10.37,2013-05-15 14:46:00,
2013-05-15 16:51:00,64.3,58.3,29.79,East,91,1.0,8.0,81,0.00,OVC,FEW,0.00,0.0,WeatherDisplay:10.37,2013-05-15 14:51:00,
2013-05-15 16:57:00,64.8,58.5,29.79,NE,53,4.0,4.0,80,0.00,OVC,FEW,0.00,0.0,WeatherDisplay:10.37,2013-05-15 14:57:00,
2013-05-15 17:03:00,64.5,58.2,29.79,East,88,5.8,5.8,80,0.00,OVC,FEW,0.00,0.0,WeatherDisplay:10.37,2013-05-15 15:03:00,
2013-05-15 17:08:00,64.2,57.9,29.78,ENE,58,6.9,6.9,80,0.00,OVC,FEW,0.00,0.0,WeatherDisplay:10.37,2013-05-15 15:08:00,
2013-05-15 17:13:00,64.5,57.8,29.78,SSW,201,10.4,10.4,79,0.00,OVC,FEW,0.00,0.0,WeatherDisplay:10.37,2013-05-15 15:13:00,
2013-05-15 17:18:00,64.8,57.8,29.78,ENE,59,4.6,4.6,78,0.00,OVC,FEW,0.00,0.0,WeatherDisplay:10.37,2013-05-15 15:18:00,
2013-05-15 17:23:00,64.7,58.0,29.79,ESE,105,6.9,6.9,79,0.00,OVC,FEW,0.00,0.0,WeatherDisplay:10.37,2013-05-15 15:23:00,
2013-05-15 17:29:00,64.3,58.0,29.79,NNE,22,2.3,2.3,80,0.00,OVC,FEW,0.00,0.0,WeatherDisplay:10.37,2013-05-15 15:29:00,
2013-05-15 17:35:00,64.0,57.7,29.79,SE,126,4.6,4.6,80,0.00,OVC,FEW,0.00,0.0,WeatherDisplay:10.37,2013-05-15 15:35:00,
2013-05-15 17:41:00,63.8,57.5,29.79,East,89,6.9,6.9,80,0.00,OVC,FEW,0.00,0.0,WeatherDisplay:10.37,2013-05-15 15:41:00,
2013-05-15 17:46:00,63.9,57.6,29.79,East,89,1.2,1.2,80,0.00,OVC,FEW,0.00,0.0,WeatherDisplay:10.37,2013-05-15 15:46:00,
2013-05-15 17:51:00,64.1,57.8,29.79,East,96,5.0,5.0,80,0.00,OVC,FEW,0.00,0.0,WeatherDisplay:10.37,2013-05-15 15:51:00,
2013-05-15 17:56:00,63.6,57.3,29.79,ESE,105,4.6,4.6,80,0.00,OVC,FEW,0.00,0.0,WeatherDisplay:10.37,2013-05-15 15:56:00,
2013-05-15 18:01:00,63.9,58.0,29.79,West,268,3.5,3.5,81,0.00,OVC,FEW,0.00,0.0,WeatherDisplay:10.37,2013-05-15 16:01:00,
2013-05-15 18:07:00,63.7,57.8,29.79,WNW,303,5.8,5.8,81,0.00,OVC,FEW,0.00,0.0,WeatherDisplay:10.37,2013-05-15 16:07:00,
2013-05-15 18:12:00,63.5,57.9,29.79,ENE,73,8.1,8.1,82,0.00,OVC,FEW,0.00,0.0,WeatherDisplay:10.37,2013-05-15 16:12:00,
2013-05-15 18:17:00,63.4,57.8,29.79,NE,52,3.5,3.5,82,0.00,OVC,FEW,0.00,0.0,WeatherDisplay:10.37,2013-05-15 16:17:00,
2013-05-15 18:22:00,63.3,58.0,29.78,NE,52,0.0,0.0,83,0.00,OVC,FEW,0.00,0.0,WeatherDisplay:10.37,2013-05-15 16:22:00,
2013-05-15 18:27:00,63.4,58.1,29.78,East,82,3.5,3.5,83,0.00,OVC,FEW,0.00,0.0,WeatherDisplay:10.37,2013-05-15 16:27:00,
2013-05-15 18:32:00,63.3,58.0,29.78,NE,56,4.6,4.6,83,0.00,OVC,FEW,0.00,0.0,WeatherDisplay:10.37,2013-05-15 16:32:00,
2013-05-15 18:37:00,63.2,57.9,29.78,NE,35,2.3,0.0,83,0.00,OVC,FEW,0.00,0.0,WeatherDisplay:10.37,2013-05-15 16:37:00,
2013-05-15 18:43:00,63.2,57.6,29.78,ENE,59,3.5,3.5,82,0.00,OVC,FEW,0.00,0.0,WeatherDisplay:10.37,2013-05-15 16:43:00,
2013-05-15 18:48:00,63.1,57.5,29.78,ENE,59,2.3,2.3,82,0.00,OVC,FEW,0.00,0.0,WeatherDisplay:10.37,2013-05-15 16:48:00,
2013-05-15 18:53:00,63.3,57.4,29.78,ENE,59,1.2,1.2,81,0.00,OVC,FEW,0.00,0.0,WeatherDisplay:10.37,2013-05-15 16:53:00,
2013-05-15 18:58:00,63.2,57.3,29.78,ENE,59,2.3,0.0,81,0.00,OVC,FEW,0.00,0.0,WeatherDisplay:10.37,2013-05-15 16:58:00,
2013-05-15 19:04:00,63.0,56.4,29.78,East,83,4.6,4.6,79,0.00,OVC,FEW,0.00,0.0,WeatherDisplay:10.37,2013-05-15 17:04:00,
2013-05-15 19:09:00,63.0,54.6,29.78,ENE,78,5.8,5.8,74,0.00,OVC,FEW,0.00,0.0,WeatherDisplay:10.37,2013-05-15 17:09:00,
2013-05-15 19:15:00,63.5,52.3,29.78,ENE,69,5.0,5.0,67,0.00,OVC,FEW,0.00,0.0,WeatherDisplay:10.37,2013-05-15 17:15:00,
2013-05-15 19:20:00,64.0,49.8,29.78,ENE,78,5.8,5.8,60,0.00,OVC,FEW,0.00,0.0,WeatherDisplay:10.37,2013-05-15 17:20:00,
2013-05-15 19:26:00,64.6,49.5,29.79,ESE,109,5.0,5.2,58,0.00,OVC,FEW,0.00,0.0,WeatherDisplay:10.37,2013-05-15 17:26:00,
2013-05-15 19:31:00,64.9,49.8,29.79,East,84,5.8,5.8,58,0.00,OVC,FEW,0.00,0.0,WeatherDisplay:10.37,2013-05-15 17:31:00,
2013-05-15 19:36:00,65.1,49.5,29.79,East,85,5.0,5.0,57,0.00,OVC,FEW,0.00,0.0,WeatherDisplay:10.37,2013-05-15 17:36:00,
2013-05-15 19:41:00,65.2,49.6,29.79,ESE,123,6.0,6.0,57,0.00,OVC,FEW,0.00,0.0,WeatherDisplay:10.37,2013-05-15 17:41:00,
2013-05-15 19:46:00,65.1,50.9,29.79,ESE,121,6.9,6.9,60,0.00,OVC,FEW,0.00,0.0,WeatherDisplay:10.37,2013-05-15 17:46:00,
2013-05-15 19:51:00,64.8,51.0,29.79,East,96,4.0,4.0,61,0.00,OVC,FEW,0.00,0.0,WeatherDisplay:10.37,2013-05-15 17:51:00,
2013-05-15 19:56:00,64.7,51.8,29.79,East,84,5.8,5.8,63,0.00,OVC,FEW,0.00,0.0,WeatherDisplay:10.37,2013-05-15 17:56:00,
2013-05-15 20:01:00,64.5,51.6,29.78,SE,128,5.8,5.8,63,0.00,OVC,FEW,0.00,0.0,WeatherDisplay:10.37,2013-05-15 18:01:00,
2013-05-15 20:07:00,64.5,51.2,29.78,ESE,114,4.6,4.6,62,0.00,OVC,FEW,0.00,0.0,WeatherDisplay:10.37,2013-05-15 18:07:00,
2013-05-15 20:12:00,64.5,50.3,29.78,East,100,6.9,6.9,60,0.00,OVC,FEW,0.00,0.0,WeatherDisplay:10.37,2013-05-15 18:12:00,
2013-05-15 20:18:00,64.5,49.4,29.77,ENE,70,11.5,11.5,58,0.00,OVC,FEW,0.00,0.0,WeatherDisplay:10.37,2013-05-15 18:18:00,
2013-05-15 20:24:00,64.4,49.8,29.77,East,96,8.1,8.1,59,0.00,OVC,FEW,0.00,0.0,WeatherDisplay:10.37,2013-05-15 18:24:00,
2013-05-15 20:29:00,63.8,49.6,29.77,ENE,71,2.3,2.3,60,0.00,OVC,FEW,0.00,0.0,WeatherDisplay:10.37,2013-05-15 18:29:00,
2013-05-15 20:34:00,63.5,49.8,29.77,ENE,57,3.5,3.5,61,0.00,OVC,FEW,0.00,0.0,WeatherDisplay:10.37,2013-05-15 18:34:00,
2013-05-15 20:39:00,63.1,49.9,29.77,SSE,161,9.2,9.2,62,0.00,OVC,FEW,0.00,0.0,WeatherDisplay:10.37,2013-05-15 18:39:00,
2013-05-15 20:44:00,63.1,49.9,29.77,ESE,115,6.0,6.0,62,0.00,CLR,FEW,0.00,0.0,WeatherDisplay:10.37,2013-05-15 18:44:00,
2013-05-15 20:49:00,63.2,49.5,29.77,NE,40,4.0,4.0,61,0.00,CLR,FEW,0.00,0.0,WeatherDisplay:10.37,2013-05-15 18:49:00,
2013-05-15 20:54:00,63.3,49.2,29.77,ENE,75,8.1,8.1,60,0.00,CLR,FEW,0.00,0.0,WeatherDisplay:10.37,2013-05-15 18:54:00,
2013-05-15 21:00:00,63.4,49.7,29.77,East,94,3.5,3.5,61,0.00,CLR,FEW,0.00,0.0,WeatherDisplay:10.37,2013-05-15 19:00:00,
2013-05-15 21:05:00,63.3,50.1,29.77,East,90,5.0,5.0,62,0.00,CLR,FEW,0.00,0.0,WeatherDisplay:10.37,2013-05-15 19:05:00,
2013-05-15 21:11:00,63.2,50.0,29.77,ENE,61,5.8,5.8,62,0.00,CLR,FEW,0.00,0.0,WeatherDisplay:10.37,2013-05-15 19:11:00,
2013-05-15 21:16:00,63.0,50.2,29.77,NE,42,3.5,3.5,63,0.00,CLR,FEW,0.00,0.0,WeatherDisplay:10.37,2013-05-15 19:16:00,
2013-05-15 21:22:00,62.9,50.1,29.77,ENE,75,1.0,6.0,63,0.00,CLR,FEW,0.00,0.0,WeatherDisplay:10.37,2013-05-15 19:22:00,
2013-05-15 21:27:00,63.0,50.2,29.77,East,92,3.5,3.5,63,0.00,CLR,FEW,0.00,0.0,WeatherDisplay:10.37,2013-05-15 19:27:00,
2013-05-15 21:32:00,63.3,50.1,29.77,ENE,78,3.5,3.5,62,0.00,CLR,FEW,0.00,0.0,WeatherDisplay:10.37,2013-05-15 19:32:00,
2013-05-15 21:37:00,63.6,49.9,29.77,East,82,5.8,5.8,61,0.00,CLR,FEW,0.00,0.0,WeatherDisplay:10.37,2013-05-15 19:37:00,
2013-05-15 21:42:00,63.7,49.5,29.77,ENE,65,4.6,4.6,60,0.00,CLR,FEW,0.00,0.0,WeatherDisplay:10.37,2013-05-15 19:42:00,
2013-05-15 21:47:00,63.7,50.0,29.77,NE,34,3.5,3.5,61,0.00,CLR,FEW,0.00,0.0,WeatherDisplay:10.37,2013-05-15 19:47:00,
2013-05-15 21:52:00,63.7,49.5,29.77,NE,44,1.2,1.4,60,0.00,CLR,FEW,0.00,0.0,WeatherDisplay:10.37,2013-05-15 19:52:00,
2013-05-15 21:58:00,63.8,49.2,29.77,ENE,65,5.8,5.8,59,0.00,CLR,FEW,0.00,0.0,WeatherDisplay:10.37,2013-05-15 19:58:00,
2013-05-15 22:03:00,63.9,50.6,29.77,ENE,63,3.5,3.5,62,0.00,CLR,FEW,0.00,0.0,WeatherDisplay:10.37,2013-05-15 20:03:00,
2013-05-15 22:08:00,63.8,52.2,29.76,NE,52,3.5,3.5,66,0.00,CLR,FEW,0.00,0.0,WeatherDisplay:10.37,2013-05-15 20:08:00,
2013-05-15 22:13:00,63.8,50.1,29.76,NE,55,4.6,4.6,61,0.00,CLR,FEW,0.00,0.0,WeatherDisplay:10.37,2013-05-15 20:13:00,
2013-05-15 22:19:00,64.4,48.8,29.76,NE,44,6.9,6.9,57,0.00,CLR,FEW,0.00,0.0,WeatherDisplay:10.37,2013-05-15 20:19:00,
2013-05-15 22:24:00,64.9,48.8,29.76,East,101,5.8,5.8,56,0.00,CLR,FEW,0.00,0.0,WeatherDisplay:10.37,2013-05-15 20:24:00,
2013-05-15 22:30:00,65.2,48.1,29.76,ENE,63,6.9,6.9,54,0.00,CLR,FEW,0.00,0.0,WeatherDisplay:10.37,2013-05-15 20:30:00,
2013-05-15 22:36:00,65.3,48.2,29.75,ESE,106,12.0,12.0,54,0.00,CLR,FEW,0.00,0.0,WeatherDisplay:10.37,2013-05-15 20:36:00,
2013-05-15 22:41:00,65.5,48.4,29.75,ESE,112,8.1,8.1,54,0.00,CLR,FEW,0.00,0.0,WeatherDisplay:10.37,2013-05-15 20:41:00,
2013-05-15 22:46:00,65.6,48.5,29.75,ESE,112,11.5,11.5,54,0.00,CLR,FEW,0.00,0.0,WeatherDisplay:10.37,2013-05-15 20:46:00,
2013-05-15 22:51:00,65.8,48.2,29.75,NE,51,6.9,6.9,53,0.00,CLR,FEW,0.00,0.0,WeatherDisplay:10.37,2013-05-15 20:51:00,
2013-05-15 22:56:00,65.8,48.2,29.74,ESE,107,8.1,8.1,53,0.00,CLR,FEW,0.00,0.0,WeatherDisplay:10.37,2013-05-15 20:56:00,
2013-05-15 23:01:00,65.9,48.3,29.74,SSE,168,4.6,4.6,53,0.00,CLR,FEW,0.00,0.0,WeatherDisplay:10.37,2013-05-15 21:01:00,
2013-05-15 23:07:00,66.0,47.9,29.74,SSE,165,6.9,6.9,52,0.00,CLR,FEW,0.00,0.0,WeatherDisplay:10.37,2013-05-15 21:07:00,
2013-05-15 23:12:00,66.1,48.0,29.74,South,175,7.0,7.0,52,0.00,CLR,FEW,0.00,0.0,WeatherDisplay:10.37,2013-05-15 21:12:00,
2013-05-15 23:17:00,66.2,48.0,29.73,SE,142,12.7,12.7,52,0.00,CLR,FEW,0.00,0.0,WeatherDisplay:10.37,2013-05-15 21:17:00,
2013-05-15 23:22:00,66.3,48.7,29.73,SE,129,13.8,13.8,53,0.00,CLR,FEW,0.00,0.0,WeatherDisplay:10.37,2013-05-15 21:22:00,
2013-05-15 23:28:00,66.3,48.7,29.74,East,80,15.0,15.0,53,0.00,CLR,FEW,0.00,0.0,WeatherDisplay:10.37,2013-05-15 21:28:00,
2013-05-15 23:34:00,66.5,49.3,29.73,ESE,113,16.1,16.1,54,0.00,CLR,FEW,0.00,0.0,WeatherDisplay:10.37,2013-05-15 21:34:00,
2013-05-15 23:39:00,66.5,48.8,29.74,SE,132,12.7,12.7,53,0.00,CLR,FEW,0.00,0.0,WeatherDisplay:10.37,2013-05-15 21:39:00,
2013-05-15 23:45:00,66.6,49.9,29.74,SW,219,12.7,12.7,55,0.00,CLR,FEW,0.00,0.0,WeatherDisplay:10.37,2013-05-15 21:45:00,
2013-05-15 23:50:00,66.5,49.8,29.74,SSE,150,9.2,9.2,55,0.00,CLR,FEW,0.00,0.0,WeatherDisplay:10.37,2013-05-15 21:50:00,
2013-05-15 23:55:00,66.4,50.2,29.74,ESE,119,12.7,12.7,56,0.00,CLR,FEW,0.00,0.0,WeatherDisplay:10.37,2013-05-15 21:55:00,